sensor_id;sensor_type;location;lat;lon;timestamp;P1;durP1;ratioP1;P2;durP2;ratioP2
78740;SDS011;68062;48.726;9.370;2023-03-26T00:00:58;1.57;;;1.47;;
78740;SDS011;68062;48.726;9.370;2023-03-26T00:03:26;3.40;;;1.17;;
78740;SDS011;68062;48.726;9.370;2023-03-26T00:06:00;2.70;;;1.27;;
78740;SDS011;68062;48.726;9.370;2023-03-26T00:08:28;1.33;;;0.83;;
78740;SDS011;68062;48.726;9.370;2023-03-26T00:10:55;1.77;;;0.90;;
78740;SDS011;68062;48.726;9.370;2023-03-26T00:13:21;2.93;;;1.77;;
78740;SDS011;68062;48.726;9.370;2023-03-26T00:15:48;2.50;;;1.00;;
78740;SDS011;68062;48.726;9.370;2023-03-26T00:18:15;1.00;;;1.00;;
78740;SDS011;68062;48.726;9.370;2023-03-26T00:20:45;2.10;;;1.30;;
78740;SDS011;68062;48.726;9.370;2023-03-26T00:23:12;3.90;;;1.03;;
78740;SDS011;68062;48.726;9.370;2023-03-26T00:25:39;3.63;;;1.67;;
78740;SDS011;68062;48.726;9.370;2023-03-26T00:28:07;1.20;;;1.10;;
78740;SDS011;68062;48.726;9.370;2023-03-26T00:30:36;1.37;;;1.20;;
78740;SDS011;68062;48.726;9.370;2023-03-26T00:33:05;2.17;;;1.40;;
78740;SDS011;68062;48.726;9.370;2023-03-26T00:35:34;5.27;;;1.40;;
78740;SDS011;68062;48.726;9.370;2023-03-26T00:38:02;1.33;;;1.30;;
78740;SDS011;68062;48.726;9.370;2023-03-26T00:40:29;1.33;;;0.90;;
78740;SDS011;68062;48.726;9.370;2023-03-26T00:42:56;3.40;;;1.57;;
78740;SDS011;68062;48.726;9.370;2023-03-26T00:45:22;3.40;;;2.10;;
78740;SDS011;68062;48.726;9.370;2023-03-26T00:47:49;1.93;;;0.90;;
78740;SDS011;68062;48.726;9.370;2023-03-26T00:50:16;2.33;;;1.40;;
78740;SDS011;68062;48.726;9.370;2023-03-26T00:52:44;3.20;;;1.07;;
78740;SDS011;68062;48.726;9.370;2023-03-26T00:55:12;2.40;;;1.10;;
78740;SDS011;68062;48.726;9.370;2023-03-26T00:57:40;1.60;;;0.97;;
78740;SDS011;68062;48.726;9.370;2023-03-26T01:00:10;4.23;;;0.97;;
78740;SDS011;68062;48.726;9.370;2023-03-26T01:02:41;3.30;;;1.33;;
78740;SDS011;68062;48.726;9.370;2023-03-26T01:08:16;1.50;;;1.07;;
78740;SDS011;68062;48.726;9.370;2023-03-26T01:10:49;1.73;;;1.20;;
78740;SDS011;68062;48.726;9.370;2023-03-26T01:13:17;4.47;;;1.50;;
78740;SDS011;68062;48.726;9.370;2023-03-26T01:15:45;1.27;;;1.17;;
78740;SDS011;68062;48.726;9.370;2023-03-26T01:18:16;2.33;;;1.00;;
78740;SDS011;68062;48.726;9.370;2023-03-26T01:20:43;3.70;;;0.97;;
78740;SDS011;68062;48.726;9.370;2023-03-26T01:23:15;4.20;;;1.30;;
78740;SDS011;68062;48.726;9.370;2023-03-26T01:25:49;3.43;;;1.37;;
78740;SDS011;68062;48.726;9.370;2023-03-26T01:28:23;1.93;;;0.93;;
78740;SDS011;68062;48.726;9.370;2023-03-26T01:30:54;2.67;;;1.07;;
78740;SDS011;68062;48.726;9.370;2023-03-26T01:33:27;1.27;;;1.17;;
78740;SDS011;68062;48.726;9.370;2023-03-26T01:36:02;1.90;;;1.33;;
78740;SDS011;68062;48.726;9.370;2023-03-26T01:38:37;2.03;;;1.20;;
78740;SDS011;68062;48.726;9.370;2023-03-26T01:41:15;2.93;;;1.07;;
78740;SDS011;68062;48.726;9.370;2023-03-26T01:43:46;2.17;;;1.40;;
78740;SDS011;68062;48.726;9.370;2023-03-26T01:46:18;3.23;;;1.00;;
78740;SDS011;68062;48.726;9.370;2023-03-26T01:48:47;6.57;;;1.33;;
78740;SDS011;68062;48.726;9.370;2023-03-26T01:51:24;4.87;;;1.40;;
78740;SDS011;68062;48.726;9.370;2023-03-26T01:53:53;2.30;;;0.90;;
78740;SDS011;68062;48.726;9.370;2023-03-26T01:56:24;1.90;;;0.80;;
78740;SDS011;68062;48.726;9.370;2023-03-26T01:58:58;1.23;;;0.90;;
78740;SDS011;68062;48.726;9.370;2023-03-26T02:01:35;3.27;;;3.00;;
78740;SDS011;68062;48.726;9.370;2023-03-26T02:04:14;2.40;;;1.00;;
78740;SDS011;68062;48.726;9.370;2023-03-26T02:06:50;2.50;;;1.20;;
78740;SDS011;68062;48.726;9.370;2023-03-26T02:09:23;3.30;;;1.20;;
78740;SDS011;68062;48.726;9.370;2023-03-26T02:11:57;1.23;;;1.13;;
78740;SDS011;68062;48.726;9.370;2023-03-26T02:14:28;1.70;;;0.87;;
78740;SDS011;68062;48.726;9.370;2023-03-26T02:16:55;2.03;;;0.90;;
78740;SDS011;68062;48.726;9.370;2023-03-26T02:19:23;2.33;;;1.27;;
78740;SDS011;68062;48.726;9.370;2023-03-26T02:21:49;1.27;;;0.90;;
78740;SDS011;68062;48.726;9.370;2023-03-26T02:24:18;2.23;;;1.40;;
78740;SDS011;68062;48.726;9.370;2023-03-26T02:26:46;2.00;;;1.63;;
78740;SDS011;68062;48.726;9.370;2023-03-26T02:29:14;2.70;;;1.20;;
78740;SDS011;68062;48.726;9.370;2023-03-26T02:31:45;2.87;;;1.30;;
78740;SDS011;68062;48.726;9.370;2023-03-26T02:34:13;2.43;;;1.20;;
78740;SDS011;68062;48.726;9.370;2023-03-26T02:36:47;1.73;;;1.30;;
78740;SDS011;68062;48.726;9.370;2023-03-26T02:39:14;2.20;;;1.13;;
78740;SDS011;68062;48.726;9.370;2023-03-26T02:41:48;2.70;;;0.83;;
78740;SDS011;68062;48.726;9.370;2023-03-26T02:44:17;2.07;;;1.23;;
78740;SDS011;68062;48.726;9.370;2023-03-26T02:46:56;5.90;;;1.30;;
78740;SDS011;68062;48.726;9.370;2023-03-26T02:49:43;3.80;;;1.40;;
78740;SDS011;68062;48.726;9.370;2023-03-26T02:52:15;2.20;;;1.30;;
78740;SDS011;68062;48.726;9.370;2023-03-26T02:54:44;3.10;;;1.20;;
78740;SDS011;68062;48.726;9.370;2023-03-26T02:57:15;2.63;;;1.10;;
78740;SDS011;68062;48.726;9.370;2023-03-26T03:00:03;2.40;;;1.13;;
78740;SDS011;68062;48.726;9.370;2023-03-26T03:02:44;1.80;;;1.60;;
78740;SDS011;68062;48.726;9.370;2023-03-26T03:05:30;1.47;;;1.40;;
78740;SDS011;68062;48.726;9.370;2023-03-26T03:08:12;3.17;;;1.13;;
78740;SDS011;68062;48.726;9.370;2023-03-26T03:10:58;2.17;;;1.20;;
78740;SDS011;68062;48.726;9.370;2023-03-26T03:13:37;1.90;;;1.20;;
78740;SDS011;68062;48.726;9.370;2023-03-26T03:16:05;2.23;;;1.00;;
78740;SDS011;68062;48.726;9.370;2023-03-26T03:18:32;3.83;;;1.80;;
78740;SDS011;68062;48.726;9.370;2023-03-26T03:21:00;2.40;;;0.97;;
78740;SDS011;68062;48.726;9.370;2023-03-26T03:23:27;1.83;;;0.70;;
78740;SDS011;68062;48.726;9.370;2023-03-26T03:26:04;1.50;;;1.00;;
78740;SDS011;68062;48.726;9.370;2023-03-26T03:28:39;1.27;;;0.90;;
78740;SDS011;68062;48.726;9.370;2023-03-26T03:31:07;4.13;;;1.70;;
78740;SDS011;68062;48.726;9.370;2023-03-26T03:33:34;2.87;;;1.60;;
78740;SDS011;68062;48.726;9.370;2023-03-26T03:36:01;3.50;;;1.30;;
78740;SDS011;68062;48.726;9.370;2023-03-26T03:38:36;8.53;;;1.90;;
78740;SDS011;68062;48.726;9.370;2023-03-26T03:41:03;4.33;;;1.60;;
78740;SDS011;68062;48.726;9.370;2023-03-26T03:43:33;1.10;;;0.90;;
78740;SDS011;68062;48.726;9.370;2023-03-26T03:46:15;1.70;;;1.13;;
78740;SDS011;68062;48.726;9.370;2023-03-26T03:48:44;2.20;;;1.10;;
78740;SDS011;68062;48.726;9.370;2023-03-26T03:51:15;4.10;;;1.43;;
78740;SDS011;68062;48.726;9.370;2023-03-26T03:53:51;1.27;;;1.20;;
78740;SDS011;68062;48.726;9.370;2023-03-26T03:56:38;2.30;;;1.17;;
78740;SDS011;68062;48.726;9.370;2023-03-26T03:59:28;3.10;;;1.10;;
78740;SDS011;68062;48.726;9.370;2023-03-26T04:01:57;2.00;;;1.40;;
78740;SDS011;68062;48.726;9.370;2023-03-26T04:04:35;1.00;;;0.90;;
78740;SDS011;68062;48.726;9.370;2023-03-26T04:07:08;2.13;;;1.13;;
78740;SDS011;68062;48.726;9.370;2023-03-26T04:10:05;1.27;;;0.93;;
78740;SDS011;68062;48.726;9.370;2023-03-26T04:13:02;5.10;;;1.40;;
78740;SDS011;68062;48.726;9.370;2023-03-26T04:15:47;1.73;;;1.30;;
78740;SDS011;68062;48.726;9.370;2023-03-26T04:18:15;6.00;;;1.40;;
78740;SDS011;68062;48.726;9.370;2023-03-26T04:20:44;1.20;;;1.00;;
78740;SDS011;68062;48.726;9.370;2023-03-26T04:23:17;4.23;;;1.67;;
78740;SDS011;68062;48.726;9.370;2023-03-26T04:25:49;1.40;;;1.27;;
78740;SDS011;68062;48.726;9.370;2023-03-26T04:28:23;1.77;;;1.00;;
78740;SDS011;68062;48.726;9.370;2023-03-26T04:31:13;1.23;;;1.10;;
78740;SDS011;68062;48.726;9.370;2023-03-26T04:33:44;2.73;;;1.37;;
78740;SDS011;68062;48.726;9.370;2023-03-26T04:36:15;3.03;;;0.90;;
78740;SDS011;68062;48.726;9.370;2023-03-26T04:38:43;1.20;;;1.00;;
78740;SDS011;68062;48.726;9.370;2023-03-26T04:41:15;2.30;;;1.03;;
78740;SDS011;68062;48.726;9.370;2023-03-26T04:44:08;6.40;;;1.57;;
78740;SDS011;68062;48.726;9.370;2023-03-26T04:46:50;3.43;;;1.53;;
78740;SDS011;68062;48.726;9.370;2023-03-26T04:49:30;3.07;;;1.43;;
78740;SDS011;68062;48.726;9.370;2023-03-26T04:51:57;2.30;;;2.10;;
78740;SDS011;68062;48.726;9.370;2023-03-26T04:54:54;1.80;;;1.20;;
78740;SDS011;68062;48.726;9.370;2023-03-26T04:57:22;3.50;;;1.10;;
78740;SDS011;68062;48.726;9.370;2023-03-26T05:00:19;3.63;;;1.37;;
78740;SDS011;68062;48.726;9.370;2023-03-26T05:02:53;2.80;;;1.60;;
78740;SDS011;68062;48.726;9.370;2023-03-26T05:05:24;3.60;;;1.50;;
78740;SDS011;68062;48.726;9.370;2023-03-26T05:07:52;1.80;;;1.23;;
78740;SDS011;68062;48.726;9.370;2023-03-26T05:10:19;2.07;;;1.53;;
78740;SDS011;68062;48.726;9.370;2023-03-26T05:13:11;3.53;;;2.13;;
78740;SDS011;68062;48.726;9.370;2023-03-26T05:15:44;2.80;;;1.27;;
78740;SDS011;68062;48.726;9.370;2023-03-26T05:18:33;10.80;;;2.17;;
78740;SDS011;68062;48.726;9.370;2023-03-26T05:21:02;4.30;;;2.00;;
78740;SDS011;68062;48.726;9.370;2023-03-26T05:23:29;4.37;;;1.67;;
78740;SDS011;68062;48.726;9.370;2023-03-26T05:26:13;2.77;;;1.83;;
78740;SDS011;68062;48.726;9.370;2023-03-26T05:28:40;1.80;;;1.30;;
78740;SDS011;68062;48.726;9.370;2023-03-26T05:31:20;2.70;;;2.07;;
78740;SDS011;68062;48.726;9.370;2023-03-26T05:33:51;2.37;;;1.80;;
78740;SDS011;68062;48.726;9.370;2023-03-26T05:36:20;3.57;;;1.70;;
78740;SDS011;68062;48.726;9.370;2023-03-26T05:38:56;2.47;;;1.23;;
78740;SDS011;68062;48.726;9.370;2023-03-26T05:41:53;5.83;;;2.40;;
78740;SDS011;68062;48.726;9.370;2023-03-26T05:44:26;7.47;;;1.83;;
78740;SDS011;68062;48.726;9.370;2023-03-26T05:46:53;5.70;;;1.93;;
78740;SDS011;68062;48.726;9.370;2023-03-26T05:49:24;2.27;;;1.57;;
78740;SDS011;68062;48.726;9.370;2023-03-26T05:51:53;1.13;;;1.07;;
78740;SDS011;68062;48.726;9.370;2023-03-26T05:54:49;4.50;;;1.67;;
78740;SDS011;68062;48.726;9.370;2023-03-26T05:57:48;3.10;;;1.80;;
78740;SDS011;68062;48.726;9.370;2023-03-26T06:00:29;5.10;;;1.90;;
78740;SDS011;68062;48.726;9.370;2023-03-26T06:02:59;1.90;;;1.30;;
78740;SDS011;68062;48.726;9.370;2023-03-26T06:05:47;3.40;;;1.17;;
78740;SDS011;68062;48.726;9.370;2023-03-26T06:08:19;5.00;;;1.80;;
78740;SDS011;68062;48.726;9.370;2023-03-26T06:10:50;3.63;;;1.70;;
78740;SDS011;68062;48.726;9.370;2023-03-26T06:13:22;2.57;;;1.57;;
78740;SDS011;68062;48.726;9.370;2023-03-26T06:15:50;1.60;;;1.17;;
78740;SDS011;68062;48.726;9.370;2023-03-26T06:18:28;4.30;;;1.60;;
78740;SDS011;68062;48.726;9.370;2023-03-26T06:21:24;4.30;;;2.20;;
78740;SDS011;68062;48.726;9.370;2023-03-26T06:24:05;5.47;;;1.87;;
78740;SDS011;68062;48.726;9.370;2023-03-26T06:26:42;2.30;;;1.70;;
78740;SDS011;68062;48.726;9.370;2023-03-26T06:29:20;5.47;;;1.37;;
78740;SDS011;68062;48.726;9.370;2023-03-26T06:32:16;3.73;;;2.33;;
78740;SDS011;68062;48.726;9.370;2023-03-26T06:34:48;3.63;;;2.53;;
78740;SDS011;68062;48.726;9.370;2023-03-26T06:37:15;3.50;;;1.70;;
78740;SDS011;68062;48.726;9.370;2023-03-26T06:39:44;2.00;;;1.73;;
78740;SDS011;68062;48.726;9.370;2023-03-26T06:42:16;3.63;;;1.60;;
78740;SDS011;68062;48.726;9.370;2023-03-26T06:44:54;3.37;;;1.90;;
78740;SDS011;68062;48.726;9.370;2023-03-26T06:47:33;2.70;;;1.80;;
78740;SDS011;68062;48.726;9.370;2023-03-26T06:50:31;3.27;;;2.13;;
78740;SDS011;68062;48.726;9.370;2023-03-26T06:53:19;4.00;;;2.27;;
78740;SDS011;68062;48.726;9.370;2023-03-26T06:56:03;6.90;;;1.70;;
78740;SDS011;68062;48.726;9.370;2023-03-26T06:58:47;3.80;;;1.77;;
78740;SDS011;68062;48.726;9.370;2023-03-26T07:01:32;4.87;;;2.73;;
78740;SDS011;68062;48.726;9.370;2023-03-26T07:04:17;15.27;;;2.93;;
78740;SDS011;68062;48.726;9.370;2023-03-26T07:07:03;3.90;;;2.50;;
78740;SDS011;68062;48.726;9.370;2023-03-26T07:09:49;6.43;;;1.80;;
78740;SDS011;68062;48.726;9.370;2023-03-26T07:12:36;5.73;;;2.97;;
78740;SDS011;68062;48.726;9.370;2023-03-26T07:15:17;3.60;;;2.07;;
78740;SDS011;68062;48.726;9.370;2023-03-26T07:17:57;3.30;;;2.50;;
78740;SDS011;68062;48.726;9.370;2023-03-26T07:20:29;10.33;;;3.90;;
78740;SDS011;68062;48.726;9.370;2023-03-26T07:22:56;6.53;;;2.60;;
78740;SDS011;68062;48.726;9.370;2023-03-26T07:25:34;6.13;;;2.60;;
78740;SDS011;68062;48.726;9.370;2023-03-26T07:28:16;6.93;;;2.13;;
78740;SDS011;68062;48.726;9.370;2023-03-26T07:31:06;15.20;;;2.67;;
78740;SDS011;68062;48.726;9.370;2023-03-26T07:33:48;4.20;;;2.40;;
78740;SDS011;68062;48.726;9.370;2023-03-26T07:36:42;5.87;;;2.13;;
78740;SDS011;68062;48.726;9.370;2023-03-26T07:39:38;3.97;;;1.90;;
78740;SDS011;68062;48.726;9.370;2023-03-26T07:42:45;4.50;;;2.00;;
78740;SDS011;68062;48.726;9.370;2023-03-26T07:45:53;4.60;;;2.60;;
78740;SDS011;68062;48.726;9.370;2023-03-26T07:48:34;3.07;;;2.40;;
78740;SDS011;68062;48.726;9.370;2023-03-26T07:51:18;3.23;;;2.17;;
78740;SDS011;68062;48.726;9.370;2023-03-26T07:53:59;4.03;;;1.93;;
78740;SDS011;68062;48.726;9.370;2023-03-26T07:56:48;3.70;;;2.00;;
78740;SDS011;68062;48.726;9.370;2023-03-26T07:59:35;2.30;;;1.53;;
78740;SDS011;68062;48.726;9.370;2023-03-26T08:02:50;4.37;;;2.30;;
78740;SDS011;68062;48.726;9.370;2023-03-26T08:06:05;6.43;;;1.80;;
78740;SDS011;68062;48.726;9.370;2023-03-26T08:08:55;1.70;;;1.43;;
78740;SDS011;68062;48.726;9.370;2023-03-26T08:11:57;2.40;;;1.10;;
78740;SDS011;68062;48.726;9.370;2023-03-26T08:14:31;5.20;;;2.50;;
78740;SDS011;68062;48.726;9.370;2023-03-26T08:17:08;1.30;;;1.10;;
78740;SDS011;68062;48.726;9.370;2023-03-26T08:19:52;4.60;;;2.00;;
78740;SDS011;68062;48.726;9.370;2023-03-26T08:22:36;6.93;;;1.87;;
78740;SDS011;68062;48.726;9.370;2023-03-26T08:25:17;3.80;;;1.60;;
78740;SDS011;68062;48.726;9.370;2023-03-26T08:28:00;6.93;;;2.40;;
78740;SDS011;68062;48.726;9.370;2023-03-26T08:30:33;7.80;;;2.40;;
78740;SDS011;68062;48.726;9.370;2023-03-26T08:33:02;3.97;;;1.53;;
78740;SDS011;68062;48.726;9.370;2023-03-26T08:35:38;5.73;;;2.23;;
78740;SDS011;68062;48.726;9.370;2023-03-26T08:38:06;6.93;;;2.30;;
78740;SDS011;68062;48.726;9.370;2023-03-26T08:43:54;3.80;;;1.93;;
78740;SDS011;68062;48.726;9.370;2023-03-26T08:59:55;8.17;;;3.13;;
78740;SDS011;68062;48.726;9.370;2023-03-26T09:08:48;7.17;;;2.13;;
78740;SDS011;68062;48.726;9.370;2023-03-26T09:11:49;6.20;;;2.20;;
78740;SDS011;68062;48.726;9.370;2023-03-26T09:14:46;5.60;;;1.90;;
78740;SDS011;68062;48.726;9.370;2023-03-26T09:26:59;4.10;;;1.73;;
78740;SDS011;68062;48.726;9.370;2023-03-26T09:29:41;4.23;;;2.20;;
78740;SDS011;68062;48.726;9.370;2023-03-26T09:36:20;6.40;;;2.30;;
78740;SDS011;68062;48.726;9.370;2023-03-26T09:39:14;3.20;;;1.90;;
78740;SDS011;68062;48.726;9.370;2023-03-26T09:42:34;2.23;;;1.80;;
78740;SDS011;68062;48.726;9.370;2023-03-26T09:45:48;3.53;;;1.67;;
78740;SDS011;68062;48.726;9.370;2023-03-26T09:49:12;3.33;;;1.60;;
78740;SDS011;68062;48.726;9.370;2023-03-26T09:52:08;2.50;;;1.30;;
78740;SDS011;68062;48.726;9.370;2023-03-26T09:55:01;2.60;;;1.30;;
78740;SDS011;68062;48.726;9.370;2023-03-26T09:57:57;2.97;;;1.23;;
78740;SDS011;68062;48.726;9.370;2023-03-26T10:00:35;2.07;;;1.40;;
78740;SDS011;68062;48.726;9.370;2023-03-26T10:03:24;1.00;;;0.70;;
78740;SDS011;68062;48.726;9.370;2023-03-26T10:06:11;1.13;;;1.10;;
78740;SDS011;68062;48.726;9.370;2023-03-26T10:08:51;4.90;;;1.50;;
78740;SDS011;68062;48.726;9.370;2023-03-26T10:11:42;2.13;;;0.90;;
78740;SDS011;68062;48.726;9.370;2023-03-26T10:14:21;0.97;;;0.87;;
78740;SDS011;68062;48.726;9.370;2023-03-26T10:16:59;1.33;;;0.80;;
78740;SDS011;68062;48.726;9.370;2023-03-26T10:19:49;0.93;;;0.87;;
78740;SDS011;68062;48.726;9.370;2023-03-26T10:22:36;1.60;;;1.20;;
78740;SDS011;68062;48.726;9.370;2023-03-26T10:25:21;1.83;;;0.87;;
78740;SDS011;68062;48.726;9.370;2023-03-26T10:28:02;1.70;;;0.90;;
78740;SDS011;68062;48.726;9.370;2023-03-26T10:30:58;1.60;;;0.93;;
78740;SDS011;68062;48.726;9.370;2023-03-26T10:33:38;3.00;;;2.10;;
78740;SDS011;68062;48.726;9.370;2023-03-26T10:36:26;3.30;;;1.40;;
78740;SDS011;68062;48.726;9.370;2023-03-26T10:41:57;0.93;;;0.83;;
78740;SDS011;68062;48.726;9.370;2023-03-26T10:44:46;1.53;;;1.10;;
78740;SDS011;68062;48.726;9.370;2023-03-26T10:47:27;1.73;;;0.70;;
78740;SDS011;68062;48.726;9.370;2023-03-26T10:50:14;1.07;;;0.70;;
78740;SDS011;68062;48.726;9.370;2023-03-26T10:52:52;2.10;;;0.80;;
78740;SDS011;68062;48.726;9.370;2023-03-26T10:55:26;1.53;;;1.20;;
78740;SDS011;68062;48.726;9.370;2023-03-26T10:57:59;1.47;;;0.80;;
78740;SDS011;68062;48.726;9.370;2023-03-26T11:00:36;1.07;;;0.70;;
78740;SDS011;68062;48.726;9.370;2023-03-26T11:03:10;2.90;;;0.70;;
78740;SDS011;68062;48.726;9.370;2023-03-26T11:06:08;0.67;;;0.63;;
78740;SDS011;68062;48.726;9.370;2023-03-26T11:08:45;1.40;;;0.60;;
78740;SDS011;68062;48.726;9.370;2023-03-26T11:11:19;1.03;;;0.70;;
78740;SDS011;68062;48.726;9.370;2023-03-26T11:14:02;0.70;;;0.60;;
78740;SDS011;68062;48.726;9.370;2023-03-26T11:19:23;0.53;;;0.50;;
78740;SDS011;68062;48.726;9.370;2023-03-26T11:22:01;1.30;;;0.87;;
78740;SDS011;68062;48.726;9.370;2023-03-26T11:27:52;1.33;;;1.23;;
78740;SDS011;68062;48.726;9.370;2023-03-26T11:30:44;2.10;;;0.67;;
78740;SDS011;68062;48.726;9.370;2023-03-26T11:33:16;1.07;;;0.73;;
78740;SDS011;68062;48.726;9.370;2023-03-26T11:35:46;0.50;;;0.50;;
78740;SDS011;68062;48.726;9.370;2023-03-26T11:38:20;0.60;;;0.60;;
78740;SDS011;68062;48.726;9.370;2023-03-26T11:41:09;1.33;;;0.87;;
78740;SDS011;68062;48.726;9.370;2023-03-26T11:44:05;1.90;;;1.20;;
78740;SDS011;68062;48.726;9.370;2023-03-26T11:46:57;1.47;;;0.53;;
78740;SDS011;68062;48.726;9.370;2023-03-26T11:49:29;1.23;;;0.63;;
78740;SDS011;68062;48.726;9.370;2023-03-26T11:51:58;1.27;;;0.60;;
78740;SDS011;68062;48.726;9.370;2023-03-26T11:54:28;1.57;;;0.70;;
78740;SDS011;68062;48.726;9.370;2023-03-26T11:57:02;2.67;;;0.97;;
78740;SDS011;68062;48.726;9.370;2023-03-26T11:59:33;0.90;;;0.60;;
78740;SDS011;68062;48.726;9.370;2023-03-26T12:02:16;1.63;;;0.60;;
78740;SDS011;68062;48.726;9.370;2023-03-26T12:04:50;0.70;;;0.60;;
78740;SDS011;68062;48.726;9.370;2023-03-26T12:07:20;2.20;;;1.30;;
78740;SDS011;68062;48.726;9.370;2023-03-26T12:09:48;1.03;;;0.73;;
78740;SDS011;68062;48.726;9.370;2023-03-26T12:12:16;3.50;;;0.60;;
78740;SDS011;68062;48.726;9.370;2023-03-26T12:14:43;0.60;;;0.50;;
78740;SDS011;68062;48.726;9.370;2023-03-26T12:17:11;1.60;;;0.50;;
78740;SDS011;68062;48.726;9.370;2023-03-26T12:19:41;1.07;;;0.50;;
78740;SDS011;68062;48.726;9.370;2023-03-26T12:22:28;1.37;;;0.60;;
78740;SDS011;68062;48.726;9.370;2023-03-26T12:25:00;1.97;;;0.60;;
78740;SDS011;68062;48.726;9.370;2023-03-26T12:27:36;2.00;;;0.60;;
78740;SDS011;68062;48.726;9.370;2023-03-26T12:30:17;1.60;;;1.17;;
78740;SDS011;68062;48.726;9.370;2023-03-26T12:32:46;1.43;;;0.50;;
78740;SDS011;68062;48.726;9.370;2023-03-26T12:35:16;2.70;;;0.80;;
78740;SDS011;68062;48.726;9.370;2023-03-26T12:37:45;1.47;;;0.90;;
78740;SDS011;68062;48.726;9.370;2023-03-26T12:43:19;0.50;;;0.50;;
78740;SDS011;68062;48.726;9.370;2023-03-26T12:46:18;1.83;;;0.90;;
78740;SDS011;68062;48.726;9.370;2023-03-26T12:50:01;1.63;;;0.87;;
78740;SDS011;68062;48.726;9.370;2023-03-26T12:59:53;0.87;;;0.60;;
78740;SDS011;68062;48.726;9.370;2023-03-26T13:03:08;1.87;;;0.70;;
78740;SDS011;68062;48.726;9.370;2023-03-26T13:06:29;2.10;;;1.07;;
78740;SDS011;68062;48.726;9.370;2023-03-26T13:09:31;2.33;;;0.70;;
78740;SDS011;68062;48.726;9.370;2023-03-26T13:12:14;1.23;;;1.13;;
78740;SDS011;68062;48.726;9.370;2023-03-26T13:14:52;0.77;;;0.60;;
78740;SDS011;68062;48.726;9.370;2023-03-26T13:17:28;4.50;;;1.17;;
78740;SDS011;68062;48.726;9.370;2023-03-26T13:20:02;1.00;;;0.93;;
78740;SDS011;68062;48.726;9.370;2023-03-26T13:22:40;2.87;;;0.83;;
78740;SDS011;68062;48.726;9.370;2023-03-26T13:25:32;2.03;;;1.77;;
78740;SDS011;68062;48.726;9.370;2023-03-26T13:28:14;2.20;;;0.90;;
78740;SDS011;68062;48.726;9.370;2023-03-26T13:30:52;2.30;;;0.87;;
78740;SDS011;68062;48.726;9.370;2023-03-26T13:33:32;1.40;;;0.60;;
78740;SDS011;68062;48.726;9.370;2023-03-26T13:36:14;1.53;;;0.70;;
78740;SDS011;68062;48.726;9.370;2023-03-26T13:38:57;1.50;;;0.60;;
78740;SDS011;68062;48.726;9.370;2023-03-26T13:41:42;1.37;;;0.90;;
78740;SDS011;68062;48.726;9.370;2023-03-26T13:44:20;2.77;;;0.73;;
78740;SDS011;68062;48.726;9.370;2023-03-26T13:46:59;0.93;;;0.60;;
78740;SDS011;68062;48.726;9.370;2023-03-26T13:49:30;1.53;;;0.77;;
78740;SDS011;68062;48.726;9.370;2023-03-26T13:52:01;1.80;;;0.80;;
78740;SDS011;68062;48.726;9.370;2023-03-26T13:54:33;2.57;;;0.80;;
78740;SDS011;68062;48.726;9.370;2023-03-26T13:57:08;5.73;;;1.30;;
78740;SDS011;68062;48.726;9.370;2023-03-26T13:59:42;1.90;;;0.70;;
78740;SDS011;68062;48.726;9.370;2023-03-26T14:02:14;1.13;;;0.83;;
78740;SDS011;68062;48.726;9.370;2023-03-26T14:04:48;1.53;;;1.43;;
78740;SDS011;68062;48.726;9.370;2023-03-26T14:07:37;1.27;;;0.70;;
78740;SDS011;68062;48.726;9.370;2023-03-26T14:10:26;1.20;;;0.70;;
78740;SDS011;68062;48.726;9.370;2023-03-26T14:13:30;1.33;;;0.50;;
78740;SDS011;68062;48.726;9.370;2023-03-26T14:16:16;1.83;;;0.83;;
78740;SDS011;68062;48.726;9.370;2023-03-26T14:18:48;1.07;;;0.70;;
78740;SDS011;68062;48.726;9.370;2023-03-26T14:24:47;1.27;;;0.67;;
78740;SDS011;68062;48.726;9.370;2023-03-26T14:27:47;2.20;;;0.77;;
78740;SDS011;68062;48.726;9.370;2023-03-26T14:34:10;1.40;;;0.70;;
78740;SDS011;68062;48.726;9.370;2023-03-26T14:43:15;0.90;;;0.70;;
78740;SDS011;68062;48.726;9.370;2023-03-26T14:46:05;1.90;;;0.57;;
78740;SDS011;68062;48.726;9.370;2023-03-26T14:48:47;5.43;;;1.03;;
78740;SDS011;68062;48.726;9.370;2023-03-26T14:51:41;2.57;;;1.10;;
78740;SDS011;68062;48.726;9.370;2023-03-26T14:54:21;1.33;;;0.70;;
78740;SDS011;68062;48.726;9.370;2023-03-26T14:56:52;2.20;;;0.77;;
78740;SDS011;68062;48.726;9.370;2023-03-26T14:59:51;3.90;;;0.80;;
78740;SDS011;68062;48.726;9.370;2023-03-26T15:06:05;2.83;;;0.70;;
78740;SDS011;68062;48.726;9.370;2023-03-26T15:11:52;2.53;;;0.87;;
78740;SDS011;68062;48.726;9.370;2023-03-26T15:27:49;1.77;;;0.73;;
78740;SDS011;68062;48.726;9.370;2023-03-26T15:37:18;2.50;;;0.80;;
78740;SDS011;68062;48.726;9.370;2023-03-26T15:40:39;3.60;;;0.80;;
78740;SDS011;68062;48.726;9.370;2023-03-26T15:46:32;1.97;;;0.90;;
78740;SDS011;68062;48.726;9.370;2023-03-26T15:49:25;3.77;;;2.00;;
78740;SDS011;68062;48.726;9.370;2023-03-26T15:52:50;1.57;;;0.90;;
78740;SDS011;68062;48.726;9.370;2023-03-26T15:59:13;1.50;;;0.70;;
78740;SDS011;68062;48.726;9.370;2023-03-26T16:33:49;1.80;;;1.00;;
78740;SDS011;68062;48.726;9.370;2023-03-26T16:36:29;1.53;;;1.20;;
78740;SDS011;68062;48.726;9.370;2023-03-26T16:46:08;0.77;;;0.60;;
78740;SDS011;68062;48.726;9.370;2023-03-26T16:49:11;1.50;;;1.00;;
78740;SDS011;68062;48.726;9.370;2023-03-26T16:59:54;0.93;;;0.80;;
78740;SDS011;68062;48.726;9.370;2023-03-26T17:03:44;0.90;;;0.40;;
78740;SDS011;68062;48.726;9.370;2023-03-26T17:31:38;1.60;;;1.27;;
78740;SDS011;68062;48.726;9.370;2023-03-26T18:05:27;1.73;;;0.83;;
78740;SDS011;68062;48.726;9.370;2023-03-26T18:17:27;0.83;;;0.60;;
78740;SDS011;68062;48.726;9.370;2023-03-26T18:20:25;0.90;;;0.53;;
78740;SDS011;68062;48.726;9.370;2023-03-26T18:23:06;1.40;;;0.90;;
78740;SDS011;68062;48.726;9.370;2023-03-26T18:25:37;1.47;;;1.00;;
78740;SDS011;68062;48.726;9.370;2023-03-26T18:28:09;1.90;;;0.90;;
78740;SDS011;68062;48.726;9.370;2023-03-26T18:30:43;1.47;;;1.13;;
78740;SDS011;68062;48.726;9.370;2023-03-26T18:33:12;1.30;;;0.50;;
78740;SDS011;68062;48.726;9.370;2023-03-26T18:35:43;0.90;;;0.73;;
78740;SDS011;68062;48.726;9.370;2023-03-26T18:38:12;2.60;;;0.93;;
78740;SDS011;68062;48.726;9.370;2023-03-26T18:40:43;1.13;;;0.80;;
78740;SDS011;68062;48.726;9.370;2023-03-26T18:43:12;1.50;;;1.13;;
78740;SDS011;68062;48.726;9.370;2023-03-26T18:45:41;1.17;;;1.10;;
78740;SDS011;68062;48.726;9.370;2023-03-26T18:48:14;1.00;;;0.80;;
78740;SDS011;68062;48.726;9.370;2023-03-26T18:50:46;1.50;;;0.67;;
78740;SDS011;68062;48.726;9.370;2023-03-26T18:53:20;1.60;;;1.50;;
78740;SDS011;68062;48.726;9.370;2023-03-26T18:55:49;2.10;;;1.23;;
78740;SDS011;68062;48.726;9.370;2023-03-26T18:58:21;1.87;;;1.30;;
78740;SDS011;68062;48.726;9.370;2023-03-26T19:00:51;0.87;;;0.80;;
78740;SDS011;68062;48.726;9.370;2023-03-26T19:03:21;1.43;;;0.97;;
78740;SDS011;68062;48.726;9.370;2023-03-26T19:05:50;1.77;;;1.30;;
78740;SDS011;68062;48.726;9.370;2023-03-26T19:08:18;3.10;;;1.57;;
78740;SDS011;68062;48.726;9.370;2023-03-26T19:10:48;1.90;;;1.20;;
78740;SDS011;68062;48.726;9.370;2023-03-26T19:13:19;1.40;;;1.23;;
78740;SDS011;68062;48.726;9.370;2023-03-26T19:15:50;2.60;;;1.47;;
78740;SDS011;68062;48.726;9.370;2023-03-26T19:18:22;2.73;;;1.10;;
78740;SDS011;68062;48.726;9.370;2023-03-26T19:22:00;1.70;;;1.00;;
78740;SDS011;68062;48.726;9.370;2023-03-26T19:24:30;2.73;;;1.40;;
78740;SDS011;68062;48.726;9.370;2023-03-26T19:28:11;1.37;;;1.10;;
78740;SDS011;68062;48.726;9.370;2023-03-26T19:30:41;0.93;;;0.80;;
78740;SDS011;68062;48.726;9.370;2023-03-26T19:43:36;1.03;;;0.60;;
78740;SDS011;68062;48.726;9.370;2023-03-26T19:46:11;1.63;;;0.90;;
78740;SDS011;68062;48.726;9.370;2023-03-26T19:49:32;1.60;;;0.97;;